createdAt,value
2023-03-23T15:59:45.045Z,100496.81
2023-03-23T16:02:20.049Z,100516.94
2023-03-23T16:04:48.144Z,100512.91
2023-03-23T16:07:15.532Z,100506.69
2023-03-23T16:09:42.747Z,100511.22
2023-03-23T16:12:13.699Z,100499.09
2023-03-23T16:14:41.754Z,100501.19
2023-03-23T16:17:14.121Z,100515.59
2023-03-23T16:19:41.420Z,100516.03
2023-03-23T16:22:09.998Z,100501.19
2023-03-23T16:24:38.837Z,100504.00
2023-03-23T16:27:06.636Z,100504.03
2023-03-23T16:29:59.829Z,100513.94
2023-03-23T16:32:21.113Z,100510.50
2023-03-23T16:34:52.587Z,100504.41
2023-03-23T16:37:26.334Z,100504.44
2023-03-23T16:39:53.664Z,100502.53
2023-03-23T16:42:45.273Z,100497.53
2023-03-23T16:45:13.873Z,100503.81
2023-03-23T16:47:52.136Z,100502.06
2023-03-23T16:50:43.024Z,100482.09
2023-03-23T16:53:14.770Z,100502.34
2023-03-23T16:55:44.363Z,100503.94
2023-03-23T16:58:16.970Z,100498.09
2023-03-23T17:00:50.312Z,100494.06
2023-03-23T17:03:24.357Z,100505.72
2023-03-23T17:05:54.064Z,100486.69
2023-03-23T17:08:23.293Z,100501.63
2023-03-23T17:10:51.469Z,100491.16
2023-03-23T17:13:31.299Z,100499.19
2023-03-23T17:16:00.603Z,100498.56
2023-03-23T17:18:30.794Z,100510.16
2023-03-23T17:21:06.938Z,100502.34
2023-03-23T17:23:49.483Z,100498.16
2023-03-23T17:26:19.686Z,100499.22
2023-03-23T17:28:49.060Z,100512.63
2023-03-23T17:31:22.831Z,100504.94
2023-03-23T17:34:04.088Z,100507.63
2023-03-23T17:36:33.200Z,100515.66
2023-03-23T17:39:08.444Z,100511.38
2023-03-23T17:41:38.128Z,100518.56
2023-03-23T17:44:11.651Z,100517.78
2023-03-23T17:46:41.320Z,100523.13
2023-03-23T17:49:09.433Z,100527.69
2023-03-23T17:51:37.632Z,100537.41
2023-03-23T17:54:10.189Z,100540.28
2023-03-23T17:56:42.227Z,100561.47
2023-03-23T17:59:15.880Z,100565.13
2023-03-23T18:01:48.104Z,100564.28
2023-03-23T18:04:27.342Z,100537.28
2023-03-23T18:06:56.690Z,100518.66
2023-03-23T18:09:27.772Z,100477.25
2023-03-23T18:11:56.952Z,100433.34
2023-03-23T18:14:24.345Z,100472.09
2023-03-23T18:16:52.073Z,100471.44
2023-03-23T18:19:19.569Z,100458.41
2023-03-23T18:21:46.902Z,100475.38
2023-03-23T18:24:15.146Z,100462.41
2023-03-23T18:26:44.112Z,100481.91
2023-03-23T18:29:36.883Z,100495.22
2023-03-23T18:32:07.872Z,100503.19
2023-03-23T18:34:36.704Z,100504.22
2023-03-23T18:37:04.707Z,100500.75
2023-03-23T18:39:34.550Z,100495.53
2023-03-23T18:42:02.054Z,100482.38
2023-03-23T18:44:30.607Z,100470.19
2023-03-23T18:47:38.987Z,100467.59
2023-03-23T18:50:10.760Z,100452.78
2023-03-23T18:52:38.464Z,100431.81
2023-03-23T18:55:09.808Z,100452.00
2023-03-23T18:57:41.773Z,100446.78
2023-03-23T19:00:15.243Z,100451.19
2023-03-23T19:03:04.507Z,100434.69
2023-03-23T19:05:58.409Z,100451.19
2023-03-23T19:11:18.569Z,100441.66
2023-03-23T19:14:02.324Z,100437.38
2023-03-23T19:16:40.051Z,100422.47
2023-03-23T19:19:11.850Z,100420.78
2023-03-23T19:21:48.701Z,100424.34
2023-03-23T19:24:27.345Z,100403.47
2023-03-23T19:27:03.086Z,100432.38
2023-03-23T19:32:30.183Z,100424.78
2023-03-23T19:35:03.916Z,100451.06
2023-03-23T19:37:34.728Z,100447.56
2023-03-23T19:40:22.705Z,100456.31
2023-03-23T19:42:58.848Z,100436.34
2023-03-23T19:45:27.850Z,100442.41
2023-03-23T19:47:55.665Z,100457.31
2023-03-23T19:50:23.251Z,100442.41
2023-03-23T19:52:51.223Z,100438.09
2023-03-23T19:55:19.484Z,100431.13
2023-03-23T19:57:49.920Z,100427.53
2023-03-23T20:00:17.502Z,100408.22
2023-03-23T20:02:45.629Z,100427.38
2023-03-23T20:05:12.888Z,100431.91
2023-03-23T20:07:42.826Z,100413.59
2023-03-23T20:10:17.100Z,100440.75
2023-03-23T20:12:44.534Z,100425.06
2023-03-23T20:15:12.312Z,100442.53
2023-03-23T20:17:40.091Z,100454.81
2023-03-23T20:20:10.263Z,100436.50
2023-03-23T20:22:38.404Z,100455.78
2023-03-23T20:25:08.202Z,100451.41
2023-03-23T20:27:37.900Z,100457.59
2023-03-23T20:30:07.720Z,100468.03
2023-03-23T20:32:37.999Z,100463.69
2023-03-23T20:35:09.858Z,100459.31
2023-03-23T20:37:41.515Z,100459.34
2023-03-23T20:40:13.477Z,100457.59
2023-03-23T20:42:44.717Z,100468.97
2023-03-23T20:45:20.691Z,100462.88
2023-03-23T20:47:49.965Z,100469.97
2023-03-23T20:50:35.929Z,100454.19
2023-03-23T20:53:09.761Z,100487.41
2023-03-23T20:55:37.987Z,100494.44
2023-03-23T20:58:05.188Z,100487.53
2023-03-23T21:00:32.572Z,100514.59
2023-03-23T21:03:03.539Z,100527.63
2023-03-23T21:05:31.836Z,100539.97
2023-03-23T21:08:00.111Z,100511.16
2023-03-23T21:10:29.154Z,100558.50
2023-03-23T21:12:58.270Z,100573.41
2023-03-23T21:15:26.521Z,100623.47
2023-03-23T21:17:53.796Z,100638.56
2023-03-23T21:20:21.185Z,100639.50
2023-03-23T21:22:48.427Z,100650.91
2023-03-23T21:25:15.988Z,100642.88
2023-03-23T21:27:43.274Z,100632.44
2023-03-23T21:30:10.725Z,100633.25
2023-03-23T21:32:38.913Z,100630.56
2023-03-23T21:35:09.078Z,100611.31
2023-03-23T21:37:36.405Z,100575.31
2023-03-23T21:40:05.338Z,100586.81
2023-03-23T21:42:32.944Z,100582.47
2023-03-23T21:45:03.746Z,100589.56
2023-03-23T21:47:31.511Z,100621.16
2023-03-23T21:49:59.450Z,100634.34
2023-03-23T21:52:27.067Z,100635.22
2023-03-23T21:54:54.535Z,100647.50
2023-03-23T21:57:23.120Z,100667.75
2023-03-23T21:59:50.417Z,100684.47
2023-03-23T22:02:17.659Z,100679.25
2023-03-23T22:04:44.988Z,100675.78
2023-03-23T22:07:12.932Z,100683.66
2023-03-23T22:09:45.416Z,100692.47
2023-03-23T22:12:13.760Z,100700.41
2023-03-23T22:14:41.085Z,100687.25
2023-03-23T22:17:09.238Z,100640.75
2023-03-23T22:19:36.840Z,100685.50
2023-03-23T22:22:07.072Z,100708.31
2023-03-23T22:24:34.372Z,100707.44
2023-03-23T22:27:01.823Z,100704.81
2023-03-23T22:29:29.056Z,100710.94
2023-03-23T22:31:56.437Z,100679.34
2023-03-23T22:34:23.868Z,100688.09
2023-03-23T22:36:51.743Z,100675.84
2023-03-23T22:39:19.147Z,100667.06
2023-03-23T22:41:46.427Z,100666.19
2023-03-23T22:44:18.500Z,100653.06
2023-03-23T22:46:46.274Z,100653.06
2023-03-23T22:49:14.094Z,100688.97
2023-03-23T22:51:41.616Z,100684.56
2023-03-23T22:54:10.220Z,100684.59
2023-03-23T22:56:38.256Z,100670.53
2023-03-23T22:59:06.946Z,100670.56
2023-03-23T23:01:36.362Z,100676.69
2023-03-23T23:04:04.597Z,100677.56
2023-03-23T23:06:31.897Z,100691.56
2023-03-23T23:08:59.487Z,100704.69
2023-03-23T23:11:28.294Z,100728.34
2023-03-23T23:13:58.220Z,100736.19
2023-03-23T23:16:27.936Z,100739.69
2023-03-23T23:18:56.353Z,100751.06
2023-03-23T23:21:27.068Z,100753.66
2023-03-23T23:23:54.719Z,100737.88
2023-03-23T23:26:22.248Z,100756.25
2023-03-23T23:28:50.715Z,100755.38
2023-03-23T23:31:27.638Z,100748.34
2023-03-23T23:33:57.140Z,100758.88
2023-03-23T23:36:30.444Z,100757.97
2023-03-23T23:39:02.468Z,100763.19
2023-03-23T23:41:30.994Z,100756.19
2023-03-23T23:43:58.995Z,100757.03
2023-03-23T23:46:27.077Z,100752.63
2023-03-23T23:48:54.442Z,100772.75
2023-03-23T23:51:21.877Z,100774.47
2023-03-23T23:53:53.649Z,100775.28
2023-03-23T23:56:21.845Z,100782.28
2023-03-23T23:58:49.623Z,100745.34
